Time;durP1;ratioP1;P1;durP2;ratioP2;P2;SDS_P1;SDS_P2;PMS_P1;PMS_P2;Temp;Humidity;BMP_temperature;BMP_pressure;BME280_temperature;BME280_humidity;BME280_pressure;Samples;Min_cycle;Max_cycle;Signal;HPM_P1;HPM_P2
2023/12/03 00:02:21;;;;;;;18.10;16.50;;;2.10;50.20;;;;;;20451;6775;280641;-68
2023/12/03 00:05:00;;;;;;;17.13;15.63;;;2.20;49.50;;;;;;20628;6780;309371;-67
2023/12/03 00:07:32;;;;;;;13.17;11.80;;;2.30;48.80;;;;;;20760;6780;117612;-69
2023/12/03 00:10:08;;;;;;;17.83;16.03;;;2.00;49.00;;;;;;20517;6795;341187;-70
2023/12/03 00:12:44;;;;;;;14.93;12.73;;;1.90;49.10;;;;;;20826;6798;117783;-68
2023/12/03 00:15:19;;;;;;;18.50;16.80;;;1.70;49.50;;;;;;20534;6791;281046;-68
2023/12/03 00:17:55;;;;;;;19.13;17.43;;;1.60;49.50;;;;;;20533;6795;308623;-69
2023/12/03 00:20:31;;;;;;;16.70;14.33;;;1.60;49.70;;;;;;20834;6768;117169;-68
2023/12/03 00:23:11;;;;;;;13.87;12.57;;;1.30;50.30;;;;;;20884;6768;119006;-70
2023/12/03 00:25:43;;;;;;;18.87;17.08;;;1.30;50.30;;;;;;20680;6766;307592;-69
2023/12/03 00:28:19;;;;;;;22.67;20.27;;;1.30;50.70;;;;;;20726;6753;336060;-69
2023/12/03 00:30:54;;;;;;;15.93;13.27;;;1.60;50.70;;;;;;20887;6738;118232;-69
2023/12/03 00:33:31;;;;;;;18.70;16.93;;;1.50;50.50;;;;;;20701;6738;278145;-68
2023/12/03 00:36:07;;;;;;;15.80;14.17;;;1.50;50.40;;;;;;20872;6768;117841;-69
2023/12/03 00:38:42;;;;;;;16.93;14.13;;;1.30;50.50;;;;;;20830;6768;118378;-69
2023/12/03 00:41:18;;;;;;;20.70;18.60;;;1.10;51.00;;;;;;20559;6768;309303;-69
2023/12/03 00:43:54;;;;;;;20.73;18.73;;;1.10;51.10;;;;;;20679;6768;308124;-69
2023/12/03 00:46:29;;;;;;;15.00;12.80;;;1.40;50.70;;;;;;20879;6768;117518;-69
2023/12/03 00:49:07;;;;;;;13.30;11.90;;;1.10;51.10;;;;;;20856;6768;119386;-68
2023/12/03 00:51:43;;;;;;;16.90;15.30;;;1.10;51.10;;;;;;20535;6768;310226;-68
2023/12/03 00:54:18;;;;;;;16.37;14.98;;;1.20;51.30;;;;;;20616;6780;307228;-69
2023/12/03 00:56:54;;;;;;;13.18;12.05;;;1.40;51.10;;;;;;20575;6783;279345;-68
2023/12/03 00:59:30;;;;;;;14.52;13.32;;;1.70;50.50;;;;;;20443;6795;309280;-69
2023/12/03 01:02:07;;;;;;;11.43;10.23;;;1.70;49.60;;;;;;20673;6756;117628;-68
2023/12/03 01:04:43;;;;;;;9.77;8.87;;;1.60;49.50;;;;;;20770;6768;118288;-68
2023/12/03 01:07:19;;;;;;;9.07;8.17;;;1.40;50.30;;;;;;20728;6781;117422;-69
2023/12/03 01:09:56;;;;;;;13.00;11.90;;;1.10;50.90;;;;;;20589;6775;305298;-69
2023/12/03 01:12:32;;;;;;;12.20;11.10;;;1.40;50.00;;;;;;20578;6798;308454;-68
2023/12/03 01:15:08;;;;;;;9.37;8.53;;;1.40;50.00;;;;;;20821;6798;117908;-69
2023/12/03 01:17:47;;;;;;;12.70;11.60;;;1.30;50.00;;;;;;20711;6753;301838;-68
2023/12/03 01:20:19;;;;;;;13.27;12.18;;;1.40;50.00;;;;;;20603;6780;281165;-70
2023/12/03 01:22:54;;;;;;;9.10;8.27;;;1.60;49.50;;;;;;20856;6780;117337;-69
2023/12/03 01:25:31;;;;;;;8.67;7.87;;;1.20;50.30;;;;;;20816;6766;119202;-68
2023/12/03 01:28:07;;;;;;;10.90;10.00;;;1.20;50.30;;;;;;20607;6783;307122;-69
2023/12/03 01:30:44;;;;;;;15.13;13.52;;;1.40;50.10;;;;;;20597;6768;339451;-70
2023/12/03 01:33:20;;;;;;;9.67;8.73;;;1.40;50.50;;;;;;20915;6753;119859;-70
2023/12/03 01:35:55;;;;;;;13.02;11.82;;;1.40;50.20;;;;;;20559;6798;288979;-68
2023/12/03 01:38:31;;;;;;;13.95;12.75;;;1.40;50.50;;;;;;20545;6783;337147;-68
2023/12/03 01:41:07;;;;;;;9.33;8.47;;;1.50;51.00;;;;;;20696;6780;120668;-69
2023/12/03 01:43:46;;;;;;;11.50;10.60;;;1.50;51.00;;;;;;20544;6792;308770;-69
2023/12/03 01:46:21;;;;;;;11.95;11.00;;;1.50;51.20;;;;;;20624;6783;277761;-68
2023/12/03 01:48:57;;;;;;;11.43;10.43;;;1.70;50.40;;;;;;20559;6810;307438;-68
2023/12/03 01:51:33;;;;;;;8.77;7.97;;;1.90;49.70;;;;;;20640;6801;117812;-69
2023/12/03 01:54:08;;;;;;;10.57;9.80;;;1.70;49.80;;;;;;20676;6766;336521;-68
2023/12/03 01:56:44;;;;;;;8.20;7.50;;;1.70;49.70;;;;;;20823;6782;117581;-68
2023/12/03 01:59:20;;;;;;;10.50;9.70;;;1.50;49.70;;;;;;20555;6790;306513;-69
2023/12/03 02:01:56;;;;;;;11.03;10.13;;;1.50;49.60;;;;;;20486;6753;309719;-69
2023/12/03 02:04:31;;;;;;;11.40;10.50;;;1.70;48.80;;;;;;20692;6760;306487;-68
2023/12/03 02:07:07;;;;;;;8.10;7.40;;;1.90;48.70;;;;;;20870;6766;117348;-77
2023/12/03 02:09:43;;;;;;;7.90;7.20;;;1.70;49.00;;;;;;20793;6795;117247;-74
2023/12/03 02:12:18;;;;;;;10.33;9.43;;;1.40;49.70;;;;;;20457;6768;311576;-74
2023/12/03 02:14:54;;;;;;;10.83;10.00;;;1.40;49.90;;;;;;20667;6768;307177;-74
2023/12/03 02:17:29;;;;;;;8.00;7.27;;;1.60;49.00;;;;;;20817;6768;117874;-76
2023/12/03 02:20:05;;;;;;;7.80;7.10;;;1.50;49.10;;;;;;20876;6771;116892;-74
2023/12/03 02:22:59;;;;;;;7.40;6.67;;;1.20;49.50;;;;;;20844;6783;117530;-74
2023/12/03 02:25:34;;;;;;;7.50;6.80;;;0.70;50.80;;;;;;20764;6785;117102;-74
2023/12/03 02:28:10;;;;;;;9.85;9.15;;;0.90;50.80;;;;;;20616;6780;339013;-74
2023/12/03 02:30:46;;;;;;;8.77;7.87;;;0.90;50.80;;;;;;20739;6795;118420;-74
2023/12/03 02:33:22;;;;;;;10.27;9.47;;;0.90;50.70;;;;;;20709;6753;307480;-74
2023/12/03 02:35:57;;;;;;;11.00;10.10;;;1.10;50.80;;;;;;20656;6771;307605;-74
2023/12/03 02:38:35;;;;;;;7.97;7.37;;;1.40;50.00;;;;;;20834;6780;117585;-74
2023/12/03 02:41:08;;;;;;;10.67;9.87;;;1.30;49.70;;;;;;20616;6753;308235;-74
2023/12/03 02:43:44;;;;;;;11.13;10.23;;;1.40;49.60;;;;;;20716;6753;279588;-74
2023/12/03 02:46:20;;;;;;;8.80;8.00;;;1.60;49.50;;;;;;20784;6781;120615;-74
2023/12/03 02:48:55;;;;;;;11.07;10.07;;;1.50;49.60;;;;;;20650;6757;282476;-74
2023/12/03 02:51:31;;;;;;;8.40;7.60;;;1.50;49.20;;;;;;20748;6753;120011;-74
2023/12/03 02:54:06;;;;;;;7.73;7.13;;;1.40;49.20;;;;;;20944;6751;117711;-74
2023/12/03 02:56:42;;;;;;;10.50;9.70;;;1.20;49.90;;;;;;20726;6753;337102;-74
2023/12/03 02:59:17;;;;;;;11.83;10.83;;;1.20;49.90;;;;;;20647;6780;320298;-75
2023/12/03 03:01:53;;;;;;;12.17;11.17;;;1.50;49.60;;;;;;20568;6768;322761;-74
2023/12/03 03:04:29;;;;;;;8.57;7.87;;;1.60;49.20;;;;;;20946;6753;117190;-74
2023/12/03 03:07:05;;;;;;;9.00;8.10;;;1.60;49.20;;;;;;20847;6780;117651;-74
2023/12/03 03:09:41;;;;;;;7.47;6.80;;;1.30;49.70;;;;;;20836;6797;117142;-74
2023/12/03 03:12:16;;;;;;;7.47;6.77;;;1.00;50.30;;;;;;20655;6805;118686;-74
2023/12/03 03:14:52;;;;;;;7.83;7.13;;;0.80;50.70;;;;;;20911;6780;116365;-75
2023/12/03 03:17:27;;;;;;;8.00;7.30;;;0.60;51.20;;;;;;20924;6768;119508;-74
2023/12/03 03:20:03;;;;;;;8.20;7.40;;;0.50;51.60;;;;;;20950;6768;116189;-75
2023/12/03 03:22:39;;;;;;;7.50;6.70;;;0.40;51.90;;;;;;21013;6742;116322;-75
2023/12/03 03:25:14;;;;;;;7.97;7.17;;;0.30;52.20;;;;;;20873;6756;129352;-74
2023/12/03 03:27:50;;;;;;;7.57;6.87;;;0.20;52.20;;;;;;20774;6794;120274;-74
2023/12/03 03:30:25;;;;;;;8.57;7.63;;;0.10;52.30;;;;;;20731;6798;118074;-74
2023/12/03 03:33:01;;;;;;;11.50;10.50;;;0.00;52.30;;;;;;20562;6788;308016;-74
2023/12/03 03:35:37;;;;;;;11.83;10.80;;;0.10;51.40;;;;;;20615;6768;306918;-74
2023/12/03 03:38:12;;;;;;;9.50;8.50;;;0.40;50.00;;;;;;20820;6781;117220;-74
2023/12/03 03:40:49;;;;;;;11.37;10.37;;;0.40;50.00;;;;;;20685;6742;279176;-74
2023/12/03 03:43:24;;;;;;;8.83;8.03;;;0.40;50.00;;;;;;20825;6764;190507;-74
2023/12/03 03:46:01;;;;;;;11.97;10.90;;;0.30;50.00;;;;;;20591;6794;306545;-74
2023/12/03 03:48:36;;;;;;;8.73;7.93;;;0.30;49.90;;;;;;20883;6766;117732;-74
2023/12/03 03:51:12;;;;;;;11.50;10.53;;;0.20;49.90;;;;;;20508;6768;311167;-74
2023/12/03 03:53:47;;;;;;;9.07;8.27;;;0.20;49.50;;;;;;20935;6753;122786;-74
2023/12/03 03:56:24;;;;;;;8.67;7.87;;;-0.20;49.70;;;;;;20812;6790;117304;-74
2023/12/03 03:58:59;;;;;;;7.03;6.43;;;-0.20;49.70;;;;;;20734;6795;117281;-74
2023/12/03 04:01:36;;;;;;;11.47;10.47;;;-0.50;50.00;;;;;;20482;6780;310215;-74
2023/12/03 04:04:11;;;;;;;9.17;8.20;;;-0.50;50.00;;;;;;20841;6766;118820;-74
2023/12/03 04:06:47;;;;;;;11.43;10.43;;;-0.50;49.90;;;;;;20671;6751;307207;-74
2023/12/03 04:09:22;;;;;;;8.30;7.53;;;-0.40;49.90;;;;;;20869;6751;117521;-74
2023/12/03 04:11:59;;;;;;;8.10;7.40;;;-0.70;50.20;;;;;;20745;6751;120693;-74
2023/12/03 04:14:34;;;;;;;8.20;7.50;;;-0.70;50.20;;;;;;20846;6766;117179;-74
2023/12/03 04:17:10;;;;;;;8.00;7.20;;;-0.90;50.60;;;;;;20825;6766;117965;-75
2023/12/03 04:19:46;;;;;;;9.17;7.13;;;-1.10;51.10;;;;;;20852;6765;117281;-74
2023/12/03 04:22:21;;;;;;;11.80;10.70;;;-1.20;51.70;;;;;;20471;6765;282046;-74
2023/12/03 04:24:57;;;;;;;13.03;11.83;;;-1.10;51.20;;;;;;20632;6765;280215;-74
2023/12/03 04:27:32;;;;;;;12.48;11.38;;;-0.80;50.30;;;;;;20602;6765;278047;-74
2023/12/03 04:30:11;;;;;;;13.15;11.95;;;-0.50;49.80;;;;;;20574;6780;308496;-74
2023/12/03 04:32:44;;;;;;;9.93;8.93;;;-0.30;49.00;;;;;;20823;6786;117392;-75
2023/12/03 04:35:23;;;;;;;13.50;12.30;;;-0.40;49.00;;;;;;20603;6780;301953;-74
2023/12/03 04:37:55;;;;;;;10.07;9.03;;;-0.50;49.40;;;;;;20818;6765;117416;-73
2023/12/03 04:40:31;;;;;;;9.03;8.23;;;-0.60;49.60;;;;;;20786;6765;118331;-73
2023/12/03 04:43:07;;;;;;;9.57;8.40;;;-0.90;50.10;;;;;;20850;6765;117558;-73
2023/12/03 04:45:43;;;;;;;8.87;8.00;;;-1.30;51.10;;;;;;20777;6781;118314;-73
2023/12/03 04:48:18;;;;;;;9.10;8.20;;;-1.30;51.10;;;;;;20839;6760;117557;-73
2023/12/03 04:50:54;;;;;;;12.80;11.60;;;-1.50;51.40;;;;;;20651;6753;308629;-73
2023/12/03 04:53:30;;;;;;;10.40;9.17;;;-1.40;51.60;;;;;;20883;6764;118706;-75
2023/12/03 04:56:06;;;;;;;13.77;12.57;;;-1.20;51.30;;;;;;20644;6763;310803;-75
2023/12/03 04:58:43;;;;;;;10.97;9.87;;;-1.20;51.00;;;;;;20892;6762;117463;-75
2023/12/03 05:01:19;;;;;;;14.23;13.02;;;-1.10;51.00;;;;;;20575;6763;339136;-75
2023/12/03 05:03:54;;;;;;;10.13;9.00;;;-1.10;51.00;;;;;;20898;6766;116563;-73
2023/12/03 05:06:31;;;;;;;10.67;8.97;;;-1.30;51.20;;;;;;20892;6766;121199;-75
2023/12/03 05:09:06;;;;;;;8.77;7.87;;;-1.30;51.20;;;;;;20873;6766;117769;-75
2023/12/03 05:11:44;;;;;;;11.50;9.00;;;-1.50;51.60;;;;;;20798;6766;117656;-74
2023/12/03 05:14:18;;;;;;;9.20;8.27;;;-1.60;52.60;;;;;;20894;6751;117756;-74
2023/12/03 05:16:53;;;;;;;13.37;12.07;;;-1.70;52.30;;;;;;20631;6781;308366;-74
2023/12/03 05:19:29;;;;;;;14.30;13.00;;;-1.60;52.20;;;;;;20628;6776;308899;-75
2023/12/03 05:22:05;;;;;;;13.90;12.60;;;-1.30;51.50;;;;;;20499;6776;280938;-74
2023/12/03 05:24:40;;;;;;;10.43;9.40;;;-0.90;50.60;;;;;;20840;6766;118648;-74
2023/12/03 05:27:16;;;;;;;9.47;8.57;;;-1.00;50.30;;;;;;20918;6766;126853;-75
2023/12/03 05:29:52;;;;;;;8.80;8.00;;;-1.50;51.20;;;;;;20851;6753;119164;-77
2023/12/03 05:32:28;;;;;;;9.97;8.97;;;-1.70;51.70;;;;;;20669;6827;117461;-74
2023/12/03 05:35:05;;;;;;;13.80;12.50;;;-1.70;51.60;;;;;;20711;6756;338775;-75
2023/12/03 05:37:42;;;;;;;10.23;9.17;;;-1.50;51.60;;;;;;20786;6783;118264;-74
2023/12/03 05:40:17;;;;;;;10.57;9.17;;;-1.60;51.50;;;;;;20829;6777;117652;-75
2023/12/03 05:42:53;;;;;;;9.67;8.67;;;-1.70;51.80;;;;;;20901;6764;117583;-75
2023/12/03 05:45:28;;;;;;;13.33;12.03;;;-1.80;52.10;;;;;;20528;6790;288283;-75
2023/12/03 05:48:04;;;;;;;13.50;12.23;;;-1.70;52.10;;;;;;20657;6771;278652;-74
2023/12/03 05:50:40;;;;;;;9.53;8.53;;;-1.30;51.10;;;;;;20750;6795;118072;-74
2023/12/03 05:53:16;;;;;;;9.17;8.27;;;-1.30;51.00;;;;;;20747;6780;118485;-75
2023/12/03 05:55:55;;;;;;;11.90;10.80;;;-1.50;51.30;;;;;;20656;6753;278481;-75
2023/12/03 05:58:27;;;;;;;9.30;8.30;;;-1.50;51.20;;;;;;20696;6810;118225;-74
2023/12/03 06:01:03;;;;;;;13.07;11.97;;;-1.50;51.20;;;;;;20466;6804;280374;-74
2023/12/03 06:03:38;;;;;;;12.70;11.60;;;-1.40;51.50;;;;;;20588;6768;312149;-74
2023/12/03 06:06:14;;;;;;;13.73;12.43;;;-1.10;50.80;;;;;;20620;6768;309563;-74
2023/12/03 06:08:50;;;;;;;9.37;8.40;;;-0.80;50.20;;;;;;20891;6764;121301;-74
2023/12/03 06:11:27;;;;;;;13.37;12.17;;;-1.00;50.10;;;;;;20644;6753;307376;-79
2023/12/03 06:14:01;;;;;;;13.13;11.93;;;-1.10;49.80;;;;;;20714;6753;280516;-74
2023/12/03 06:16:37;;;;;;;13.73;12.43;;;-0.90;49.10;;;;;;20619;6753;277343;-75
2023/12/03 06:19:12;;;;;;;9.40;8.50;;;-0.70;48.90;;;;;;20917;6738;118381;-75
2023/12/03 06:21:48;;;;;;;12.60;11.30;;;-0.90;49.00;;;;;;20479;6753;302467;-73
2023/12/03 06:24:25;;;;;;;13.43;12.23;;;-1.00;49.20;;;;;;20681;6753;339032;-73
2023/12/03 06:27:02;;;;;;;13.30;12.10;;;-0.90;49.10;;;;;;20600;6766;289320;-73
2023/12/03 06:29:35;;;;;;;13.17;11.97;;;-0.70;49.10;;;;;;20617;6757;308974;-73
2023/12/03 06:32:12;;;;;;;13.95;12.55;;;-0.60;48.80;;;;;;20598;6771;308041;-75
2023/12/03 06:34:50;;;;;;;13.27;12.00;;;-0.50;48.80;;;;;;20654;6753;336308;-74
2023/12/03 06:37:23;;;;;;;9.57;8.63;;;-0.40;48.80;;;;;;20837;6748;119650;-74
2023/12/03 06:39:59;;;;;;;13.55;12.25;;;-0.60;49.10;;;;;;20654;6748;308721;-74
2023/12/03 06:42:35;;;;;;;13.77;12.37;;;-0.70;49.60;;;;;;20649;6753;308538;-74
2023/12/03 06:45:11;;;;;;;13.80;12.60;;;-0.50;49.20;;;;;;20585;6768;279025;-74
2023/12/03 06:47:47;;;;;;;9.87;8.97;;;-0.40;48.70;;;;;;20810;6779;117798;-74
2023/12/03 06:50:23;;;;;;;13.38;12.07;;;-0.60;48.90;;;;;;20583;6779;285339;-74
2023/12/03 06:52:59;;;;;;;14.10;12.80;;;-0.70;49.40;;;;;;20564;6768;278717;-74
2023/12/03 06:55:35;;;;;;;8.90;8.10;;;-0.50;49.00;;;;;;20811;6780;118437;-74
2023/12/03 06:58:11;;;;;;;9.70;8.70;;;-0.70;49.10;;;;;;20823;6775;117721;-74
2023/12/03 07:00:47;;;;;;;9.70;8.67;;;-1.00;49.80;;;;;;20687;6775;117777;-74
2023/12/03 07:03:23;;;;;;;12.97;11.70;;;-1.30;50.40;;;;;;20542;6783;307468;-74
2023/12/03 07:05:59;;;;;;;13.40;12.10;;;-1.30;50.60;;;;;;20538;6798;279327;-73
2023/12/03 07:08:34;;;;;;;13.57;12.27;;;-1.00;50.00;;;;;;20572;6779;308268;-74
2023/12/03 07:11:10;;;;;;;13.73;12.45;;;-0.80;49.20;;;;;;20488;6764;283452;-73
2023/12/03 07:13:47;;;;;;;13.35;12.15;;;-0.50;48.40;;;;;;20558;6779;306914;-73
2023/12/03 07:16:23;;;;;;;10.30;9.30;;;-0.60;48.70;;;;;;20776;6786;118668;-73
2023/12/03 07:18:58;;;;;;;9.60;8.57;;;-0.70;48.70;;;;;;20797;6772;118855;-72
2023/12/03 07:21:34;;;;;;;8.93;8.13;;;-1.00;49.40;;;;;;20622;6780;117654;-73
2023/12/03 07:24:12;;;;;;;13.67;12.37;;;-1.30;50.20;;;;;;20569;6783;307365;-73
2023/12/03 07:26:45;;;;;;;10.13;9.17;;;-1.30;50.50;;;;;;20788;6780;119649;-73
2023/12/03 07:29:21;;;;;;;13.47;12.27;;;-1.30;50.50;;;;;;20553;6771;283366;-73
2023/12/03 07:31:56;;;;;;;14.13;12.73;;;-1.20;50.50;;;;;;20423;6779;280847;-74
2023/12/03 07:34:32;;;;;;;10.07;9.07;;;-1.00;49.70;;;;;;20790;6780;119639;-73
2023/12/03 07:37:08;;;;;;;10.27;8.63;;;-1.00;49.70;;;;;;20814;6753;122849;-73
2023/12/03 07:39:46;;;;;;;12.43;11.30;;;-1.30;50.20;;;;;;20651;6753;277594;-73
2023/12/03 07:42:19;;;;;;;13.70;12.40;;;-1.20;50.60;;;;;;20448;6767;310750;-73
2023/12/03 07:44:54;;;;;;;9.17;8.13;;;-0.90;49.90;;;;;;20885;6752;117785;-73
2023/12/03 07:47:31;;;;;;;10.27;8.37;;;-1.10;50.50;;;;;;20790;6768;118942;-73
2023/12/03 07:50:07;;;;;;;9.43;7.83;;;-1.10;50.50;;;;;;20861;6763;117344;-73
2023/12/03 07:52:43;;;;;;;8.23;7.43;;;-1.40;51.60;;;;;;20906;6747;117484;-73
2023/12/03 07:55:19;;;;;;;9.40;8.17;;;-1.40;51.60;;;;;;20893;6747;117456;-78
2023/12/03 07:57:55;;;;;;;11.97;10.93;;;-1.20;52.10;;;;;;20682;6747;335920;-73
2023/12/03 08:00:30;;;;;;;13.70;12.40;;;-1.20;52.00;;;;;;20585;6775;321496;-73
2023/12/03 08:03:07;;;;;;;9.47;8.50;;;-0.60;52.50;;;;;;20765;6783;118009;-74
2023/12/03 08:05:43;;;;;;;12.17;10.97;;;-0.40;52.00;;;;;;20618;6653;310672;-73
2023/12/03 08:08:19;;;;;;;10.00;9.07;;;-0.20;51.40;;;;;;20856;6750;117320;-73
2023/12/03 08:10:54;;;;;;;13.20;12.00;;;-0.20;51.20;;;;;;20550;6765;280578;-73
2023/12/03 08:13:31;;;;;;;13.20;12.00;;;0.30;50.50;;;;;;20654;6751;311581;-73
2023/12/03 08:16:06;;;;;;;12.40;10.80;;;0.30;50.50;;;;;;20879;6751;119477;-73
2023/12/03 08:18:43;;;;;;;20.30;18.33;;;0.40;50.70;;;;;;20566;6765;309374;-73
2023/12/03 08:21:18;;;;;;;16.27;14.87;;;0.40;50.60;;;;;;20466;6781;311615;-73
2023/12/03 08:23:54;;;;;;;11.97;10.90;;;0.70;49.50;;;;;;20832;6765;117463;-72
2023/12/03 08:26:29;;;;;;;11.93;10.83;;;0.70;49.50;;;;;;20820;6771;117910;-72
2023/12/03 08:29:05;;;;;;;13.37;12.17;;;0.50;50.10;;;;;;20564;6781;278898;-72
2023/12/03 08:31:41;;;;;;;14.17;12.87;;;0.60;49.70;;;;;;20460;6776;311354;-72
2023/12/03 08:34:17;;;;;;;12.70;11.60;;;0.90;50.00;;;;;;20581;6780;313818;-73
2023/12/03 08:36:52;;;;;;;10.00;9.00;;;1.20;48.60;;;;;;20827;6766;119094;-71
2023/12/03 08:39:29;;;;;;;9.67;8.60;;;1.00;49.50;;;;;;20805;6766;118067;-74
2023/12/03 08:42:04;;;;;;;8.23;7.43;;;0.90;49.40;;;;;;20671;6766;117913;-74
2023/12/03 08:44:40;;;;;;;11.97;10.97;;;0.80;50.00;;;;;;20601;6768;307373;-74
2023/12/03 08:47:15;;;;;;;9.57;8.67;;;0.90;49.80;;;;;;20735;6786;117799;-73
2023/12/03 08:49:52;;;;;;;12.47;11.37;;;1.00;50.00;;;;;;20672;6768;322635;-74
2023/12/03 08:52:29;;;;;;;12.50;11.40;;;1.20;50.30;;;;;;20456;6825;279095;-74
2023/12/03 08:55:06;;;;;;;12.77;11.68;;;1.50;49.30;;;;;;20719;6753;312556;-74
2023/12/03 08:57:41;;;;;;;16.43;14.73;;;1.80;48.30;;;;;;20866;6753;118204;-73
2023/12/03 09:00:16;;;;;;;10.30;9.30;;;1.80;48.60;;;;;;20894;6753;118060;-74
2023/12/03 09:02:52;;;;;;;9.37;8.43;;;1.60;49.20;;;;;;20929;6756;117677;-74
2023/12/03 09:05:28;;;;;;;10.20;9.30;;;1.40;49.90;;;;;;20976;6738;116587;-74
2023/12/03 09:08:03;;;;;;;10.23;8.70;;;1.30;50.40;;;;;;20953;6738;117471;-73
2023/12/03 09:10:39;;;;;;;15.73;14.33;;;1.20;50.80;;;;;;20678;6738;309615;-73
2023/12/03 09:13:14;;;;;;;10.77;9.47;;;1.30;50.80;;;;;;20861;6765;117330;-73
2023/12/03 09:15:56;;;;;;;14.20;12.90;;;1.40;50.60;;;;;;20612;6768;309611;-74
2023/12/03 09:18:34;;;;;;;13.98;12.77;;;1.60;50.30;;;;;;20685;6745;316521;-71
2023/12/03 09:21:08;;;;;;;11.30;9.53;;;1.90;49.20;;;;;;20766;6756;118240;-73
2023/12/03 09:23:42;;;;;;;9.53;8.50;;;1.90;49.20;;;;;;20814;6765;120280;-71
2023/12/03 09:26:18;;;;;;;10.03;9.03;;;1.80;49.70;;;;;;20836;6765;118246;-72
2023/12/03 09:28:55;;;;;;;13.00;11.87;;;1.70;50.20;;;;;;20608;6766;280187;-72
2023/12/03 09:31:31;;;;;;;13.95;12.65;;;2.10;49.10;;;;;;20494;6766;281196;-72
2023/12/03 09:34:07;;;;;;;13.23;12.03;;;2.10;48.40;;;;;;20652;6766;277328;-72
2023/12/03 09:36:42;;;;;;;14.17;12.87;;;2.40;47.40;;;;;;20658;6751;308001;-72
2023/12/03 09:39:18;;;;;;;10.80;9.70;;;2.70;46.90;;;;;;20847;6751;120374;-72
2023/12/03 09:41:53;;;;;;;14.17;12.80;;;2.60;46.70;;;;;;20490;6751;310477;-72
2023/12/03 09:44:33;;;;;;;13.93;12.70;;;2.60;46.90;;;;;;20656;6751;307686;-72
2023/12/03 09:47:09;;;;;;;10.87;9.80;;;2.80;46.30;;;;;;20858;6751;118457;-72
2023/12/03 09:49:46;;;;;;;11.90;10.73;;;2.60;47.60;;;;;;20810;6775;117663;-70
2023/12/03 09:52:24;;;;;;;13.48;12.27;;;2.60;47.60;;;;;;20542;6795;339689;-78
2023/12/03 09:54:59;;;;;;;14.13;12.77;;;2.70;47.20;;;;;;20531;6794;308885;-72
2023/12/03 09:57:36;;;;;;;10.87;9.87;;;2.90;46.80;;;;;;20789;6771;117379;-72
2023/12/03 10:00:11;;;;;;;9.47;8.57;;;2.90;46.80;;;;;;20795;6781;118230;-71
2023/12/03 10:02:48;;;;;;;10.50;9.50;;;2.70;47.50;;;;;;20910;6771;117413;-71
2023/12/03 10:05:25;;;;;;;14.23;12.82;;;2.60;47.60;;;;;;20553;6783;282567;-71
2023/12/03 10:08:02;;;;;;;10.37;9.43;;;2.60;47.60;;;;;;20795;6779;117413;-71
2023/12/03 10:10:39;;;;;;;9.43;8.53;;;2.50;47.80;;;;;;20826;6768;117085;-70
2023/12/03 10:13:13;;;;;;;13.02;11.82;;;2.50;49.00;;;;;;20565;6783;277997;-71
2023/12/03 10:15:48;;;;;;;13.82;12.60;;;2.60;47.70;;;;;;20597;6795;338279;-71
2023/12/03 10:18:24;;;;;;;13.05;11.85;;;2.90;46.30;;;;;;20680;6755;337021;-71
2023/12/03 10:21:07;;;;;;;11.33;10.23;;;3.10;45.90;;;;;;20707;6798;117819;-71
2023/12/03 10:23:44;;;;;;;13.07;11.87;;;3.20;46.40;;;;;;20612;6783;278902;-73
2023/12/03 10:26:20;;;;;;;9.67;8.73;;;3.20;46.20;;;;;;20812;6780;117467;-70
2023/12/03 10:28:55;;;;;;;10.40;9.37;;;3.20;46.60;;;;;;20854;6753;117900;-71
2023/12/03 10:31:32;;;;;;;8.80;7.93;;;3.00;47.40;;;;;;20738;6753;119653;-70
2023/12/03 10:34:06;;;;;;;9.43;8.53;;;2.80;48.10;;;;;;20865;6775;118243;-70
2023/12/03 10:36:42;;;;;;;13.30;12.10;;;2.70;48.90;;;;;;20506;6798;308518;-71
2023/12/03 10:39:19;;;;;;;8.37;7.57;;;3.00;48.50;;;;;;20859;6762;119890;-71
2023/12/03 10:41:55;;;;;;;11.12;10.23;;;3.20;47.40;;;;;;20500;6777;329521;-72
2023/12/03 10:44:30;;;;;;;11.60;10.70;;;3.10;47.30;;;;;;20595;6791;278752;-71
2023/12/03 10:47:07;;;;;;;10.73;9.73;;;3.50;46.40;;;;;;20617;6783;281604;-71
2023/12/03 10:49:42;;;;;;;9.07;8.20;;;3.70;45.80;;;;;;20779;6781;117341;-70
2023/12/03 10:52:17;;;;;;;12.77;11.67;;;3.80;46.30;;;;;;20432;6776;335390;-71
2023/12/03 10:54:53;;;;;;;10.33;8.93;;;3.80;47.20;;;;;;20767;6790;117590;-69
2023/12/03 10:57:29;;;;;;;9.20;8.40;;;3.90;47.70;;;;;;20767;6791;117333;-71
2023/12/03 11:00:09;;;;;;;9.43;8.50;;;3.70;48.00;;;;;;20714;6807;118028;-71
2023/12/03 11:02:44;;;;;;;12.07;10.80;;;3.70;48.60;;;;;;20533;6809;278999;-72
2023/12/03 11:05:31;;;;;;;10.53;9.73;;;3.70;48.60;;;;;;20495;6806;333864;-72
2023/12/03 11:08:06;;;;;;;11.57;10.67;;;4.00;47.50;;;;;;20588;6777;278008;-72
2023/12/03 11:10:44;;;;;;;9.20;8.40;;;4.20;46.80;;;;;;20837;6751;119067;-72
2023/12/03 11:13:20;;;;;;;9.00;8.10;;;4.20;46.80;;;;;;20817;6779;116959;-73
2023/12/03 11:15:56;;;;;;;8.23;7.43;;;4.00;47.60;;;;;;20782;6784;118257;-72
2023/12/03 11:18:33;;;;;;;8.93;7.63;;;3.80;48.40;;;;;;20808;6783;117611;-71
2023/12/03 11:21:11;;;;;;;11.33;10.43;;;3.70;49.00;;;;;;20512;6781;295507;-73
2023/12/03 11:24:11;;;;;;;10.03;9.03;;;3.80;48.60;;;;;;20789;6783;117665;-72
2023/12/03 11:26:46;;;;;;;8.80;7.93;;;3.80;48.60;;;;;;20751;6798;117170;-71
2023/12/03 11:29:22;;;;;;;9.30;8.40;;;3.60;49.00;;;;;;20751;6801;116893;-72
2023/12/03 11:31:59;;;;;;;8.70;7.70;;;3.50;49.70;;;;;;20542;6854;119859;-72
2023/12/03 11:34:34;;;;;;;11.70;10.70;;;3.40;49.90;;;;;;20596;6771;310548;-71
2023/12/03 11:37:11;;;;;;;9.20;8.40;;;3.60;48.80;;;;;;20769;6764;127448;-72
2023/12/03 11:39:48;;;;;;;12.85;11.75;;;3.60;48.80;;;;;;20604;6793;278257;-71
2023/12/03 11:42:23;;;;;;;11.87;10.87;;;3.80;49.90;;;;;;20363;6854;305606;-70
2023/12/03 11:45:19;;;;;;;9.80;9.00;;;4.10;49.00;;;;;;20838;6775;117364;-71
2023/12/03 11:48:08;;;;;;;10.23;8.87;;;4.10;48.60;;;;;;20801;6782;117398;-72
2023/12/03 11:50:44;;;;;;;11.07;10.18;;;3.80;47.70;;;;;;20532;6782;311104;-71
2023/12/03 11:53:20;;;;;;;9.37;8.47;;;3.80;47.70;;;;;;20758;6797;141942;-71
2023/12/03 11:55:55;;;;;;;12.40;11.23;;;3.80;48.20;;;;;;20611;6782;277288;-72
2023/12/03 11:58:31;;;;;;;10.97;9.93;;;3.90;48.70;;;;;;20813;6782;117256;-71
2023/12/03 12:01:07;;;;;;;12.07;11.07;;;3.90;49.20;;;;;;20487;6782;309290;-72
2023/12/03 12:03:43;;;;;;;13.27;11.97;;;4.20;47.40;;;;;;20562;6801;288054;-71
2023/12/03 12:06:26;;;;;;;10.20;9.20;;;4.20;47.30;;;;;;20782;6798;118290;-71
2023/12/03 12:09:00;;;;;;;13.23;12.13;;;4.10;47.60;;;;;;20616;6780;308249;-70
2023/12/03 12:11:36;;;;;;;12.90;11.80;;;4.10;47.80;;;;;;20492;6780;293520;-70
2023/12/03 12:14:12;;;;;;;13.00;11.47;;;4.30;47.30;;;;;;20894;6766;118157;-70
2023/12/03 12:16:48;;;;;;;12.00;9.77;;;4.00;48.50;;;;;;20894;6766;117785;-70
2023/12/03 12:19:23;;;;;;;11.20;10.10;;;4.00;48.50;;;;;;20864;6766;117130;-70
2023/12/03 12:21:59;;;;;;;13.83;12.63;;;3.70;49.00;;;;;;20399;6794;281275;-70
2023/12/03 12:24:35;;;;;;;14.52;13.25;;;4.00;48.50;;;;;;20584;6783;308752;-70
2023/12/03 12:27:11;;;;;;;11.67;10.47;;;4.00;48.50;;;;;;20754;6779;118458;-71
2023/12/03 12:29:47;;;;;;;11.00;9.93;;;4.00;48.40;;;;;;20800;6779;118547;-71
2023/12/03 12:32:22;;;;;;;10.10;9.20;;;3.70;48.80;;;;;;20675;6781;118036;-71
2023/12/03 12:35:04;;;;;;;12.77;11.77;;;3.60;49.60;;;;;;20618;6766;306994;-71
2023/12/03 12:37:40;;;;;;;10.07;9.17;;;3.70;49.60;;;;;;20794;6768;116950;-71
2023/12/03 12:40:13;;;;;;;11.63;10.50;;;3.70;49.70;;;;;;20795;6768;118318;-71
2023/12/03 12:42:52;;;;;;;9.33;8.53;;;3.50;50.10;;;;;;20816;6771;117691;-71
2023/12/03 12:45:27;;;;;;;10.03;9.03;;;3.50;50.80;;;;;;20809;6756;119070;-71
2023/12/03 12:48:02;;;;;;;10.60;9.50;;;3.30;51.10;;;;;;20821;6771;116933;-71
2023/12/03 12:50:39;;;;;;;13.17;11.97;;;3.30;51.50;;;;;;20489;6776;281728;-72
2023/12/03 12:53:14;;;;;;;13.00;11.90;;;3.50;51.30;;;;;;20473;6777;307979;-72
2023/12/03 12:55:52;;;;;;;9.97;9.07;;;3.80;48.90;;;;;;20838;6760;117596;-72
2023/12/03 12:58:25;;;;;;;9.73;8.83;;;3.80;48.90;;;;;;20782;6764;118203;-71
2023/12/03 13:01:02;;;;;;;13.50;12.33;;;3.70;49.70;;;;;;20493;6761;311275;-71
2023/12/03 13:03:39;;;;;;;10.67;9.57;;;3.80;49.60;;;;;;20756;6779;120361;-72
2023/12/03 13:06:14;;;;;;;14.27;12.98;;;3.80;49.80;;;;;;20555;6783;336017;-72
2023/12/03 13:08:50;;;;;;;10.00;9.10;;;3.90;49.30;;;;;;20731;6791;119371;-73
2023/12/03 13:11:25;;;;;;;9.30;8.47;;;3.90;49.40;;;;;;20691;6763;118074;-72
2023/12/03 13:14:01;;;;;;;12.65;11.55;;;3.70;49.80;;;;;;20571;6781;307017;-73
2023/12/03 13:16:38;;;;;;;11.23;10.03;;;3.80;49.50;;;;;;20764;6777;117439;-72